createdAt,value
2024-02-08T08:26:27.101Z,11.40
2024-02-08T08:50:51.430Z,16.90
2024-02-08T08:55:51.010Z,13.30
2024-02-08T09:00:48.367Z,12.47
2024-02-08T09:05:44.907Z,12.63
2024-02-08T09:21:41.488Z,11.73
2024-02-08T09:26:50.252Z,12.40
2024-02-08T09:31:47.978Z,12.97
2024-02-08T09:36:45.255Z,12.13
2024-02-08T09:41:40.083Z,11.50
2024-02-08T09:54:16.154Z,10.47
2024-02-08T09:59:18.973Z,10.50
2024-02-08T10:04:27.292Z,10.33
2024-02-08T10:09:42.234Z,10.10
2024-02-08T10:14:36.761Z,9.57
2024-02-08T10:19:49.610Z,8.87
2024-02-08T10:25:01.433Z,9.47
2024-02-08T10:30:02.387Z,8.90
2024-02-08T10:35:15.292Z,9.30
2024-02-08T10:40:31.176Z,8.80
2024-02-08T10:45:25.988Z,9.30
2024-02-08T10:50:22.648Z,9.90
2024-02-08T10:55:20.630Z,10.07
2024-02-08T11:00:29.846Z,9.67
2024-02-08T11:05:43.844Z,9.93
2024-02-08T11:10:39.511Z,9.97
2024-02-08T11:15:40.678Z,10.07
2024-02-08T11:20:43.985Z,9.47
2024-02-08T11:25:46.411Z,10.70
2024-02-08T11:30:41.124Z,10.17
2024-02-08T11:35:37.380Z,11.47
2024-02-08T11:40:37.548Z,11.07
2024-02-08T11:45:33.379Z,12.60
2024-02-08T11:50:37.864Z,10.57
2024-02-08T11:55:31.773Z,11.30
2024-02-08T12:00:26.329Z,10.15
2024-02-08T12:05:22.232Z,10.00
2024-02-08T12:10:16.879Z,9.18
2024-02-08T12:15:14.356Z,10.20
2024-02-08T12:20:12.112Z,10.02
2024-02-08T12:25:09.412Z,10.10
2024-02-08T12:30:04.888Z,10.55
2024-02-08T12:34:58.988Z,10.32
2024-02-08T12:39:53.471Z,10.48
2024-02-08T12:44:51.677Z,10.95
2024-02-08T12:49:49.092Z,11.13
2024-02-08T12:54:43.306Z,12.38
2024-02-08T12:59:38.042Z,10.90
2024-02-08T13:04:33.490Z,10.90
2024-02-08T13:09:28.626Z,11.50
2024-02-08T13:14:22.178Z,11.20
2024-02-08T13:19:27.169Z,11.50
2024-02-08T13:24:22.655Z,11.13
2024-02-08T13:29:16.719Z,11.73
2024-02-08T13:34:11.052Z,11.68
2024-02-08T13:39:05.280Z,11.75
2024-02-08T13:44:01.252Z,11.00
2024-02-08T13:48:55.139Z,11.30
2024-02-08T13:53:51.351Z,12.18
2024-02-08T13:58:45.299Z,10.07
2024-02-08T14:03:41.176Z,11.43
2024-02-08T14:08:35.340Z,10.63
2024-02-08T14:13:36.768Z,11.27
2024-02-08T14:18:38.767Z,11.32
2024-02-08T14:23:39.367Z,10.40
2024-02-08T14:28:33.825Z,10.63
2024-02-08T14:33:27.602Z,10.07
2024-02-08T14:38:21.381Z,10.63
2024-02-08T14:43:27.032Z,10.35
2024-02-08T14:48:24.663Z,10.27
2024-02-08T14:53:19.181Z,9.70
2024-02-08T14:58:32.855Z,9.48
2024-02-08T15:03:30.497Z,10.05
2024-02-08T15:08:40.742Z,10.35
2024-02-08T15:13:47.732Z,10.23
2024-02-08T15:18:49.829Z,9.55
2024-02-08T15:24:06.574Z,9.73
2024-02-08T15:29:05.449Z,9.60
2024-02-08T15:34:09.928Z,11.53
2024-02-08T15:39:24.613Z,11.40
2024-02-08T15:44:20.566Z,12.90
2024-02-08T15:49:16.677Z,13.23
2024-02-08T15:54:23.424Z,14.30
2024-02-08T15:59:17.041Z,15.07
2024-02-08T16:04:31.694Z,13.83
2024-02-08T16:09:34.513Z,14.93
2024-02-08T16:14:31.371Z,15.30
2024-02-08T16:19:31.753Z,14.40
2024-02-08T16:24:32.060Z,15.87
2024-02-08T16:29:35.970Z,15.90
2024-02-08T16:34:36.013Z,15.27
2024-02-08T16:39:34.995Z,15.77
2024-02-08T16:44:44.975Z,15.93
2024-02-08T16:49:45.442Z,15.50
2024-02-08T16:54:56.136Z,16.03
2024-02-08T16:59:54.403Z,14.73
2024-02-08T17:04:51.386Z,15.03
2024-02-08T17:09:48.710Z,14.30
2024-02-08T17:14:48.277Z,15.60
2024-02-08T17:19:58.962Z,15.00
2024-02-08T17:25:20.752Z,14.37
2024-02-08T17:30:26.492Z,14.67
